sensor_id;sensor_type;location;lat;lon;timestamp;pressure;altitude;pressure_sealevel;temperature;humidity
37291;BME280;23175;-33.706;151.094;2023-05-14T00:00:51;101235.38;;;20.83;38.10
37291;BME280;23175;-33.706;151.094;2023-05-14T00:03:20;101225.14;;;19.53;37.90
37291;BME280;23175;-33.706;151.094;2023-05-14T00:05:50;101221.83;;;19.52;38.83
37291;BME280;23175;-33.706;151.094;2023-05-14T00:08:19;101222.42;;;20.51;38.75
37291;BME280;23175;-33.706;151.094;2023-05-14T00:10:50;101224.65;;;18.16;41.58
37291;BME280;23175;-33.706;151.094;2023-05-14T00:13:20;101221.01;;;18.46;42.16
37291;BME280;23175;-33.706;151.094;2023-05-14T00:15:51;101224.00;;;17.91;43.36
37291;BME280;23175;-33.706;151.094;2023-05-14T00:18:20;101222.74;;;18.43;43.29
37291;BME280;23175;-33.706;151.094;2023-05-14T00:20:50;101220.41;;;16.55;46.17
37291;BME280;23175;-33.706;151.094;2023-05-14T00:23:20;101222.86;;;18.78;42.94
37291;BME280;23175;-33.706;151.094;2023-05-14T00:25:50;101218.66;;;18.50;43.22
37291;BME280;23175;-33.706;151.094;2023-05-14T00:28:21;101218.36;;;16.49;47.83
37291;BME280;23175;-33.706;151.094;2023-05-14T00:30:51;101222.88;;;16.65;46.53
37291;BME280;23175;-33.706;151.094;2023-05-14T00:33:20;101224.28;;;15.85;48.04
37291;BME280;23175;-33.706;151.094;2023-05-14T00:35:50;101224.63;;;17.62;45.40
37291;BME280;23175;-33.706;151.094;2023-05-14T00:38:21;101222.41;;;17.11;45.60
37291;BME280;23175;-33.706;151.094;2023-05-14T00:40:50;101221.02;;;17.41;46.99
37291;BME280;23175;-33.706;151.094;2023-05-14T00:43:21;101219.35;;;16.86;47.34
37291;BME280;23175;-33.706;151.094;2023-05-14T00:45:52;101216.21;;;18.50;44.35
37291;BME280;23175;-33.706;151.094;2023-05-14T00:48:23;101211.68;;;19.53;41.50
37291;BME280;23175;-33.706;151.094;2023-05-14T00:50:54;101202.40;;;20.28;39.09
37291;BME280;23175;-33.706;151.094;2023-05-14T00:53:24;101201.46;;;16.72;42.73
37291;BME280;23175;-33.706;151.094;2023-05-14T00:55:55;101194.91;;;19.24;39.99
37291;BME280;23175;-33.706;151.094;2023-05-14T00:58:25;101189.57;;;20.22;39.33
37291;BME280;23175;-33.706;151.094;2023-05-14T01:00:57;101183.44;;;19.71;38.84
37291;BME280;23175;-33.706;151.094;2023-05-14T01:03:27;101177.75;;;20.47;37.71
37291;BME280;23175;-33.706;151.094;2023-05-14T01:06:03;101171.07;;;18.81;39.48
37291;BME280;23175;-33.706;151.094;2023-05-14T01:08:44;101163.97;;;20.80;38.06
37291;BME280;23175;-33.706;151.094;2023-05-14T01:11:27;101161.35;;;18.50;41.38
37291;BME280;23175;-33.706;151.094;2023-05-14T01:14:05;101159.02;;;16.83;45.27
37291;BME280;23175;-33.706;151.094;2023-05-14T01:16:38;101156.71;;;17.94;44.62
37291;BME280;23175;-33.706;151.094;2023-05-14T01:19:14;101156.67;;;19.22;43.61
37291;BME280;23175;-33.706;151.094;2023-05-14T01:21:49;101148.34;;;19.77;41.84
37291;BME280;23175;-33.706;151.094;2023-05-14T01:24:19;101140.73;;;19.75;41.58
37291;BME280;23175;-33.706;151.094;2023-05-14T01:26:50;101141.03;;;20.28;41.28
37291;BME280;23175;-33.706;151.094;2023-05-14T01:29:22;101138.69;;;19.17;43.20
37291;BME280;23175;-33.706;151.094;2023-05-14T01:31:54;101129.13;;;16.16;46.34
37291;BME280;23175;-33.706;151.094;2023-05-14T01:34:27;101124.29;;;18.48;44.32
37291;BME280;23175;-33.706;151.094;2023-05-14T01:36:59;101118.29;;;16.11;48.24
37291;BME280;23175;-33.706;151.094;2023-05-14T01:39:29;101109.54;;;15.20;48.76
37291;BME280;23175;-33.706;151.094;2023-05-14T01:42:00;101103.65;;;16.32;47.28
37291;BME280;23175;-33.706;151.094;2023-05-14T01:44:31;101100.80;;;18.24;44.63
37291;BME280;23175;-33.706;151.094;2023-05-14T01:47:01;101097.81;;;17.22;46.07
37291;BME280;23175;-33.706;151.094;2023-05-14T01:49:30;101089.55;;;17.49;45.44
37291;BME280;23175;-33.706;151.094;2023-05-14T01:52:00;101082.51;;;18.69;44.24
37291;BME280;23175;-33.706;151.094;2023-05-14T01:54:30;101078.12;;;16.73;47.80
37291;BME280;23175;-33.706;151.094;2023-05-14T01:56:59;101075.67;;;17.14;46.88
37291;BME280;23175;-33.706;151.094;2023-05-14T01:59:29;101074.02;;;15.90;49.91
37291;BME280;23175;-33.706;151.094;2023-05-14T02:02:00;101074.16;;;16.65;47.60
37291;BME280;23175;-33.706;151.094;2023-05-14T02:04:30;101073.84;;;17.73;46.89
37291;BME280;23175;-33.706;151.094;2023-05-14T02:07:00;101065.76;;;16.65;48.00
37291;BME280;23175;-33.706;151.094;2023-05-14T02:09:30;101062.13;;;18.16;46.86
37291;BME280;23175;-33.706;151.094;2023-05-14T02:12:00;101056.89;;;18.12;48.08
37291;BME280;23175;-33.706;151.094;2023-05-14T02:14:29;101055.50;;;17.73;49.09
37291;BME280;23175;-33.706;151.094;2023-05-14T02:16:59;101050.72;;;18.26;47.91
37291;BME280;23175;-33.706;151.094;2023-05-14T02:19:29;101046.86;;;18.29;47.18
37291;BME280;23175;-33.706;151.094;2023-05-14T02:22:00;101041.88;;;18.64;47.53
37291;BME280;23175;-33.706;151.094;2023-05-14T02:24:30;101036.27;;;18.07;47.58
37291;BME280;23175;-33.706;151.094;2023-05-14T02:26:59;101034.88;;;17.01;49.86
37291;BME280;23175;-33.706;151.094;2023-05-14T02:29:29;101038.81;;;17.34;51.17
37291;BME280;23175;-33.706;151.094;2023-05-14T02:31:59;101033.07;;;18.62;49.11
37291;BME280;23175;-33.706;151.094;2023-05-14T02:34:30;101026.05;;;18.93;48.33
37291;BME280;23175;-33.706;151.094;2023-05-14T02:37:00;101020.82;;;19.11;48.61
37291;BME280;23175;-33.706;151.094;2023-05-14T02:39:31;101019.07;;;17.87;49.53
37291;BME280;23175;-33.706;151.094;2023-05-14T02:42:01;101012.09;;;19.01;47.73
37291;BME280;23175;-33.706;151.094;2023-05-14T02:44:31;101007.55;;;18.86;46.93
37291;BME280;23175;-33.706;151.094;2023-05-14T02:47:01;101005.88;;;17.19;50.27
37291;BME280;23175;-33.706;151.094;2023-05-14T02:49:30;100993.16;;;18.48;47.82
37291;BME280;23175;-33.706;151.094;2023-05-14T02:52:00;100988.98;;;18.69;47.14
37291;BME280;23175;-33.706;151.094;2023-05-14T02:54:30;100987.50;;;17.49;48.47
37291;BME280;23175;-33.706;151.094;2023-05-14T02:57:00;100982.16;;;18.30;47.50
37291;BME280;23175;-33.706;151.094;2023-05-14T02:59:31;100977.85;;;18.68;46.79
37291;BME280;23175;-33.706;151.094;2023-05-14T03:02:00;100978.46;;;18.80;46.11
37291;BME280;23175;-33.706;151.094;2023-05-14T03:04:30;100976.98;;;19.00;45.93
37291;BME280;23175;-33.706;151.094;2023-05-14T03:06:59;100973.29;;;19.06;46.60
37291;BME280;23175;-33.706;151.094;2023-05-14T03:09:30;100974.96;;;19.11;47.01
37291;BME280;23175;-33.706;151.094;2023-05-14T03:12:00;100977.25;;;19.10;47.28
37291;BME280;23175;-33.706;151.094;2023-05-14T03:14:30;100974.75;;;19.23;47.81
37291;BME280;23175;-33.706;151.094;2023-05-14T03:17:01;100971.94;;;16.20;53.54
37291;BME280;23175;-33.706;151.094;2023-05-14T03:19:31;100964.59;;;18.03;50.29
37291;BME280;23175;-33.706;151.094;2023-05-14T03:22:02;100965.76;;;17.97;50.43
37291;BME280;23175;-33.706;151.094;2023-05-14T03:24:33;100968.23;;;16.10;53.27
37291;BME280;23175;-33.706;151.094;2023-05-14T03:27:03;100962.72;;;17.93;49.83
37291;BME280;23175;-33.706;151.094;2023-05-14T03:29:33;100965.58;;;18.12;49.36
37291;BME280;23175;-33.706;151.094;2023-05-14T03:32:04;100966.42;;;18.76;47.55
37291;BME280;23175;-33.706;151.094;2023-05-14T03:34:34;100964.72;;;16.83;51.22
37291;BME280;23175;-33.706;151.094;2023-05-14T03:37:10;100958.65;;;17.05;49.97
37291;BME280;23175;-33.706;151.094;2023-05-14T03:39:41;100954.63;;;16.60;51.45
37291;BME280;23175;-33.706;151.094;2023-05-14T03:42:10;100950.84;;;16.14;53.78
37291;BME280;23175;-33.706;151.094;2023-05-14T03:44:40;100947.51;;;17.56;50.17
37291;BME280;23175;-33.706;151.094;2023-05-14T03:47:10;100955.79;;;16.10;52.73
37291;BME280;23175;-33.706;151.094;2023-05-14T03:49:40;100957.28;;;14.56;55.21
37291;BME280;23175;-33.706;151.094;2023-05-14T03:52:10;100956.82;;;16.35;51.05
37291;BME280;23175;-33.706;151.094;2023-05-14T03:54:40;100957.35;;;18.01;49.04
37291;BME280;23175;-33.706;151.094;2023-05-14T03:57:11;100963.46;;;12.47;57.71
37291;BME280;23175;-33.706;151.094;2023-05-14T03:59:42;100957.52;;;16.51;51.89
37291;BME280;23175;-33.706;151.094;2023-05-14T04:02:13;100950.99;;;13.43;57.83
37291;BME280;23175;-33.706;151.094;2023-05-14T04:04:43;100946.38;;;15.49;54.49
37291;BME280;23175;-33.706;151.094;2023-05-14T04:07:13;100941.67;;;14.38;57.69
37291;BME280;23175;-33.706;151.094;2023-05-14T04:09:43;100936.82;;;14.12;56.96
37291;BME280;23175;-33.706;151.094;2023-05-14T04:12:13;100940.70;;;14.61;56.65
37291;BME280;23175;-33.706;151.094;2023-05-14T04:14:44;100936.93;;;14.35;57.66
37291;BME280;23175;-33.706;151.094;2023-05-14T04:17:14;100934.91;;;15.10;55.90
37291;BME280;23175;-33.706;151.094;2023-05-14T04:19:44;100933.93;;;16.04;53.65
37291;BME280;23175;-33.706;151.094;2023-05-14T04:22:14;100932.76;;;16.46;53.05
37291;BME280;23175;-33.706;151.094;2023-05-14T04:24:44;100934.43;;;13.82;57.40
37291;BME280;23175;-33.706;151.094;2023-05-14T04:27:20;100930.80;;;16.03;51.60
37291;BME280;23175;-33.706;151.094;2023-05-14T04:29:50;100926.76;;;15.03;52.38
37291;BME280;23175;-33.706;151.094;2023-05-14T04:32:20;100923.29;;;16.23;50.92
37291;BME280;23175;-33.706;151.094;2023-05-14T04:34:51;100920.43;;;14.92;53.14
37291;BME280;23175;-33.706;151.094;2023-05-14T04:37:21;100923.49;;;15.06;51.91
37291;BME280;23175;-33.706;151.094;2023-05-14T04:39:51;100924.14;;;12.96;55.16
37291;BME280;23175;-33.706;151.094;2023-05-14T04:42:21;100922.23;;;14.01;56.09
37291;BME280;23175;-33.706;151.094;2023-05-14T04:44:50;100922.55;;;14.32;55.45
37291;BME280;23175;-33.706;151.094;2023-05-14T04:47:20;100917.11;;;15.12;51.59
37291;BME280;23175;-33.706;151.094;2023-05-14T04:49:50;100918.38;;;15.21;51.78
37291;BME280;23175;-33.706;151.094;2023-05-14T04:52:19;100919.03;;;17.02;50.17
37291;BME280;23175;-33.706;151.094;2023-05-14T04:54:49;100918.28;;;15.24;51.88
37291;BME280;23175;-33.706;151.094;2023-05-14T04:57:20;100919.66;;;15.01;53.40
37291;BME280;23175;-33.706;151.094;2023-05-14T04:59:59;100927.43;;;12.62;57.32
37291;BME280;23175;-33.706;151.094;2023-05-14T05:02:29;100924.36;;;15.18;52.49
37291;BME280;23175;-33.706;151.094;2023-05-14T05:05:00;100928.69;;;13.90;54.76
37291;BME280;23175;-33.706;151.094;2023-05-14T05:07:30;100931.07;;;15.77;50.89
37291;BME280;23175;-33.706;151.094;2023-05-14T05:09:59;100929.25;;;15.86;50.28
37291;BME280;23175;-33.706;151.094;2023-05-14T05:12:30;100925.88;;;14.99;51.85
37291;BME280;23175;-33.706;151.094;2023-05-14T05:15:00;100924.19;;;16.56;49.15
37291;BME280;23175;-33.706;151.094;2023-05-14T05:17:29;100919.55;;;14.51;52.48
37291;BME280;23175;-33.706;151.094;2023-05-14T05:19:59;100919.87;;;13.52;53.90
37291;BME280;23175;-33.706;151.094;2023-05-14T05:22:29;100918.22;;;14.45;52.29
37291;BME280;23175;-33.706;151.094;2023-05-14T05:25:00;100918.84;;;16.03;50.51
37291;BME280;23175;-33.706;151.094;2023-05-14T05:27:30;100912.30;;;17.22;48.16
37291;BME280;23175;-33.706;151.094;2023-05-14T05:30:00;100915.69;;;15.17;51.14
37291;BME280;23175;-33.706;151.094;2023-05-14T05:32:31;100919.74;;;17.00;48.39
37291;BME280;23175;-33.706;151.094;2023-05-14T05:35:01;100923.34;;;16.40;48.58
37291;BME280;23175;-33.706;151.094;2023-05-14T05:37:32;100927.90;;;17.66;48.08
37291;BME280;23175;-33.706;151.094;2023-05-14T05:40:03;100928.14;;;17.25;48.96
37291;BME280;23175;-33.706;151.094;2023-05-14T05:42:33;100932.49;;;15.10;50.68
37291;BME280;23175;-33.706;151.094;2023-05-14T05:45:04;100935.10;;;16.88;48.93
37291;BME280;23175;-33.706;151.094;2023-05-14T05:47:34;100937.46;;;16.49;49.75
37291;BME280;23175;-33.706;151.094;2023-05-14T05:50:04;100939.70;;;16.74;48.83
37291;BME280;23175;-33.706;151.094;2023-05-14T05:52:34;100944.14;;;16.51;49.91
37291;BME280;23175;-33.706;151.094;2023-05-14T05:55:05;100941.17;;;17.87;46.55
37291;BME280;23175;-33.706;151.094;2023-05-14T05:57:35;100937.62;;;18.44;46.09
37291;BME280;23175;-33.706;151.094;2023-05-14T06:00:07;100940.39;;;18.19;46.31
37291;BME280;23175;-33.706;151.094;2023-05-14T06:02:38;100945.41;;;18.36;46.89
37291;BME280;23175;-33.706;151.094;2023-05-14T06:05:09;100948.41;;;18.35;46.32
37291;BME280;23175;-33.706;151.094;2023-05-14T06:07:40;100947.00;;;18.37;46.71
37291;BME280;23175;-33.706;151.094;2023-05-14T06:10:10;100946.18;;;18.78;47.00
37291;BME280;23175;-33.706;151.094;2023-05-14T06:12:40;100945.25;;;18.14;47.69
37291;BME280;23175;-33.706;151.094;2023-05-14T06:15:11;100943.06;;;18.36;47.42
37291;BME280;23175;-33.706;151.094;2023-05-14T06:17:41;100938.21;;;18.41;47.50
37291;BME280;23175;-33.706;151.094;2023-05-14T06:20:11;100935.77;;;18.41;47.28
37291;BME280;23175;-33.706;151.094;2023-05-14T06:22:41;100933.66;;;18.61;47.74
37291;BME280;23175;-33.706;151.094;2023-05-14T06:25:12;100930.25;;;18.49;47.71
37291;BME280;23175;-33.706;151.094;2023-05-14T06:27:43;100929.94;;;18.60;47.37
37291;BME280;23175;-33.706;151.094;2023-05-14T06:30:14;100931.29;;;18.52;47.56
37291;BME280;23175;-33.706;151.094;2023-05-14T06:32:44;100933.21;;;18.46;47.72
37291;BME280;23175;-33.706;151.094;2023-05-14T06:35:15;100931.74;;;18.38;47.60
37291;BME280;23175;-33.706;151.094;2023-05-14T06:37:45;100931.00;;;18.37;47.76
37291;BME280;23175;-33.706;151.094;2023-05-14T06:40:15;100934.47;;;18.28;47.80
37291;BME280;23175;-33.706;151.094;2023-05-14T06:42:45;100939.80;;;17.75;48.26
37291;BME280;23175;-33.706;151.094;2023-05-14T06:45:16;100934.30;;;17.79;47.58
37291;BME280;23175;-33.706;151.094;2023-05-14T06:47:46;100938.68;;;17.95;47.72
37291;BME280;23175;-33.706;151.094;2023-05-14T06:50:17;100940.52;;;17.53;48.57
37291;BME280;23175;-33.706;151.094;2023-05-14T06:52:47;100941.61;;;17.75;48.17
37291;BME280;23175;-33.706;151.094;2023-05-14T06:55:17;100943.62;;;17.71;48.13
37291;BME280;23175;-33.706;151.094;2023-05-14T06:57:48;100944.03;;;17.67;48.19
37291;BME280;23175;-33.706;151.094;2023-05-14T07:00:19;100943.97;;;17.59;48.42
37291;BME280;23175;-33.706;151.094;2023-05-14T07:02:49;100941.99;;;17.86;48.04
37291;BME280;23175;-33.706;151.094;2023-05-14T07:05:19;100944.29;;;17.40;48.46
37291;BME280;23175;-33.706;151.094;2023-05-14T07:07:51;100946.45;;;17.98;48.46
37291;BME280;23175;-33.706;151.094;2023-05-14T07:10:22;100946.72;;;17.60;48.26
37291;BME280;23175;-33.706;151.094;2023-05-14T07:12:52;100948.76;;;17.22;48.38
37291;BME280;23175;-33.706;151.094;2023-05-14T07:15:23;100948.44;;;17.15;48.97
37291;BME280;23175;-33.706;151.094;2023-05-14T07:17:52;100949.24;;;16.97;48.63
37291;BME280;23175;-33.706;151.094;2023-05-14T07:20:22;100953.81;;;16.98;49.41
37291;BME280;23175;-33.706;151.094;2023-05-14T07:22:53;100953.59;;;16.86;49.02
37291;BME280;23175;-33.706;151.094;2023-05-14T07:25:23;100950.65;;;17.16;48.93
37291;BME280;23175;-33.706;151.094;2023-05-14T07:27:53;100953.07;;;17.22;48.63
37291;BME280;23175;-33.706;151.094;2023-05-14T07:30:25;100955.23;;;17.50;48.49
37291;BME280;23175;-33.706;151.094;2023-05-14T07:32:55;100961.98;;;16.46;50.35
37291;BME280;23175;-33.706;151.094;2023-05-14T07:35:25;100965.00;;;16.81;49.19
37291;BME280;23175;-33.706;151.094;2023-05-14T07:37:56;100967.23;;;17.10;49.11
37291;BME280;23175;-33.706;151.094;2023-05-14T07:40:26;100967.57;;;16.64;49.27
37291;BME280;23175;-33.706;151.094;2023-05-14T07:42:56;100965.72;;;16.68;48.84
37291;BME280;23175;-33.706;151.094;2023-05-14T07:45:26;100968.42;;;16.94;49.11
37291;BME280;23175;-33.706;151.094;2023-05-14T07:47:57;100967.75;;;15.69;51.25
37291;BME280;23175;-33.706;151.094;2023-05-14T07:50:27;100971.37;;;16.60;49.69
37291;BME280;23175;-33.706;151.094;2023-05-14T07:52:57;100977.01;;;14.00;53.78
37291;BME280;23175;-33.706;151.094;2023-05-14T07:55:29;100980.11;;;16.19;50.24
37291;BME280;23175;-33.706;151.094;2023-05-14T07:57:59;100984.51;;;15.62;51.26
37291;BME280;23175;-33.706;151.094;2023-05-14T08:00:29;100987.18;;;15.33;51.95
37291;BME280;23175;-33.706;151.094;2023-05-14T08:02:59;100991.39;;;15.85;50.92
37291;BME280;23175;-33.706;151.094;2023-05-14T08:05:29;100992.27;;;15.77;51.12
37291;BME280;23175;-33.706;151.094;2023-05-14T08:07:59;100996.24;;;16.75;49.74
37291;BME280;23175;-33.706;151.094;2023-05-14T08:10:30;101000.17;;;16.94;49.87
37291;BME280;23175;-33.706;151.094;2023-05-14T08:13:00;101000.44;;;16.41;49.59
37291;BME280;23175;-33.706;151.094;2023-05-14T08:15:30;101003.32;;;16.40;49.54
37291;BME280;23175;-33.706;151.094;2023-05-14T08:18:01;101002.01;;;16.27;49.86
37291;BME280;23175;-33.706;151.094;2023-05-14T08:20:31;101002.11;;;16.37;49.77
37291;BME280;23175;-33.706;151.094;2023-05-14T08:23:02;101005.61;;;16.42;49.81
37291;BME280;23175;-33.706;151.094;2023-05-14T08:25:32;101016.65;;;14.65;53.87
37291;BME280;23175;-33.706;151.094;2023-05-14T08:28:02;101014.04;;;15.82;51.74
37291;BME280;23175;-33.706;151.094;2023-05-14T08:30:32;101016.26;;;15.17;52.27
37291;BME280;23175;-33.706;151.094;2023-05-14T08:33:02;101017.28;;;15.04;54.07
37291;BME280;23175;-33.706;151.094;2023-05-14T08:35:31;101016.32;;;15.97;52.05
37291;BME280;23175;-33.706;151.094;2023-05-14T08:38:01;101015.75;;;16.41;50.58
37291;BME280;23175;-33.706;151.094;2023-05-14T08:40:31;101020.48;;;16.23;50.65
37291;BME280;23175;-33.706;151.094;2023-05-14T08:43:02;101022.39;;;16.04;50.63
37291;BME280;23175;-33.706;151.094;2023-05-14T08:45:34;101020.84;;;16.60;50.13
37291;BME280;23175;-33.706;151.094;2023-05-14T08:48:07;101016.31;;;15.54;52.19
37291;BME280;23175;-33.706;151.094;2023-05-14T08:50:41;101017.32;;;16.67;50.61
37291;BME280;23175;-33.706;151.094;2023-05-14T08:53:11;101012.21;;;16.81;49.88
37291;BME280;23175;-33.706;151.094;2023-05-14T08:55:43;101009.83;;;16.40;50.80
37291;BME280;23175;-33.706;151.094;2023-05-14T08:58:14;101006.60;;;15.47;52.66
37291;BME280;23175;-33.706;151.094;2023-05-14T09:00:44;101011.63;;;16.69;50.95
37291;BME280;23175;-33.706;151.094;2023-05-14T09:03:14;101013.75;;;16.65;50.60
37291;BME280;23175;-33.706;151.094;2023-05-14T09:05:46;101009.89;;;16.75;50.24
37291;BME280;23175;-33.706;151.094;2023-05-14T09:08:18;101010.35;;;16.76;50.13
37291;BME280;23175;-33.706;151.094;2023-05-14T09:10:48;101012.19;;;16.90;49.66
37291;BME280;23175;-33.706;151.094;2023-05-14T09:13:19;101016.74;;;16.39;50.52
37291;BME280;23175;-33.706;151.094;2023-05-14T09:15:50;101020.74;;;16.55;50.20
37291;BME280;23175;-33.706;151.094;2023-05-14T09:18:21;101024.86;;;16.57;49.88
37291;BME280;23175;-33.706;151.094;2023-05-14T09:20:52;101029.91;;;16.56;49.80
37291;BME280;23175;-33.706;151.094;2023-05-14T09:23:22;101030.58;;;16.81;49.49
37291;BME280;23175;-33.706;151.094;2023-05-14T09:25:54;101031.26;;;16.59;49.69
37291;BME280;23175;-33.706;151.094;2023-05-14T09:28:24;101033.58;;;16.81;49.32
37291;BME280;23175;-33.706;151.094;2023-05-14T09:30:55;101036.49;;;16.51;49.71
37291;BME280;23175;-33.706;151.094;2023-05-14T09:33:29;101035.59;;;16.79;49.18
37291;BME280;23175;-33.706;151.094;2023-05-14T09:36:00;101034.86;;;16.94;49.63
37291;BME280;23175;-33.706;151.094;2023-05-14T09:38:31;101035.74;;;16.57;50.22
37291;BME280;23175;-33.706;151.094;2023-05-14T09:41:01;101039.12;;;16.49;49.69
37291;BME280;23175;-33.706;151.094;2023-05-14T09:43:31;101033.64;;;16.82;49.56
37291;BME280;23175;-33.706;151.094;2023-05-14T09:46:02;101033.22;;;16.85;49.27
37291;BME280;23175;-33.706;151.094;2023-05-14T09:48:32;101034.37;;;16.61;49.26
37291;BME280;23175;-33.706;151.094;2023-05-14T09:51:02;101036.80;;;17.07;49.33
37291;BME280;23175;-33.706;151.094;2023-05-14T09:53:34;101036.00;;;16.41;49.29
37291;BME280;23175;-33.706;151.094;2023-05-14T09:56:04;101036.40;;;16.51;48.93
37291;BME280;23175;-33.706;151.094;2023-05-14T09:58:34;101036.83;;;16.52;49.32
37291;BME280;23175;-33.706;151.094;2023-05-14T10:01:05;101038.68;;;16.33;49.10
37291;BME280;23175;-33.706;151.094;2023-05-14T10:03:35;101035.20;;;16.08;49.47
37291;BME280;23175;-33.706;151.094;2023-05-14T10:06:06;101034.52;;;15.73;49.64
37291;BME280;23175;-33.706;151.094;2023-05-14T10:08:39;101035.84;;;16.67;49.47
37291;BME280;23175;-33.706;151.094;2023-05-14T10:11:14;101033.78;;;15.86;49.37
37291;BME280;23175;-33.706;151.094;2023-05-14T10:13:55;101037.87;;;16.09;49.81
37291;BME280;23175;-33.706;151.094;2023-05-14T10:16:30;101036.66;;;15.82;49.71
37291;BME280;23175;-33.706;151.094;2023-05-14T10:19:03;101035.32;;;16.15;49.02
37291;BME280;23175;-33.706;151.094;2023-05-14T10:21:36;101034.41;;;16.67;49.29
37291;BME280;23175;-33.706;151.094;2023-05-14T10:24:08;101034.76;;;16.31;49.31
37291;BME280;23175;-33.706;151.094;2023-05-14T10:26:40;101037.79;;;16.20;49.31
37291;BME280;23175;-33.706;151.094;2023-05-14T10:29:11;101036.30;;;15.71;49.65
37291;BME280;23175;-33.706;151.094;2023-05-14T10:31:50;101039.07;;;16.37;48.95
37291;BME280;23175;-33.706;151.094;2023-05-14T10:34:38;101036.86;;;16.04;48.94
37291;BME280;23175;-33.706;151.094;2023-05-14T10:37:09;101031.32;;;16.45;49.21
37291;BME280;23175;-33.706;151.094;2023-05-14T10:39:45;101032.77;;;16.25;49.02
37291;BME280;23175;-33.706;151.094;2023-05-14T10:42:18;101032.91;;;16.50;49.11
37291;BME280;23175;-33.706;151.094;2023-05-14T10:44:53;101033.45;;;15.55;51.01
37291;BME280;23175;-33.706;151.094;2023-05-14T10:47:23;101029.61;;;15.85;49.76
37291;BME280;23175;-33.706;151.094;2023-05-14T10:49:56;101030.88;;;16.11;49.33
37291;BME280;23175;-33.706;151.094;2023-05-14T10:52:27;101031.05;;;15.60;50.16
37291;BME280;23175;-33.706;151.094;2023-05-14T10:54:58;101030.04;;;16.01;49.64
37291;BME280;23175;-33.706;151.094;2023-05-14T10:57:30;101025.57;;;15.91;49.74
37291;BME280;23175;-33.706;151.094;2023-05-14T11:00:01;101025.68;;;16.38;49.43
37291;BME280;23175;-33.706;151.094;2023-05-14T11:02:33;101021.47;;;16.13;49.29
37291;BME280;23175;-33.706;151.094;2023-05-14T11:05:06;101018.30;;;15.73;49.30
37291;BME280;23175;-33.706;151.094;2023-05-14T11:07:37;101017.65;;;15.90;49.37
37291;BME280;23175;-33.706;151.094;2023-05-14T11:10:09;101024.12;;;15.12;50.62
37291;BME280;23175;-33.706;151.094;2023-05-14T11:12:41;101022.86;;;15.93;49.37
37291;BME280;23175;-33.706;151.094;2023-05-14T11:15:13;101026.72;;;16.22;49.36
37291;BME280;23175;-33.706;151.094;2023-05-14T11:17:47;101027.79;;;16.08;48.74
37291;BME280;23175;-33.706;151.094;2023-05-14T11:20:19;101024.73;;;15.87;49.18
37291;BME280;23175;-33.706;151.094;2023-05-14T11:22:50;101023.22;;;16.49;48.67
37291;BME280;23175;-33.706;151.094;2023-05-14T11:25:20;101023.03;;;15.20;50.35
37291;BME280;23175;-33.706;151.094;2023-05-14T11:27:50;101023.04;;;15.86;50.04
37291;BME280;23175;-33.706;151.094;2023-05-14T11:30:21;101020.66;;;15.81;49.32
37291;BME280;23175;-33.706;151.094;2023-05-14T11:32:51;101019.44;;;15.90;49.22
37291;BME280;23175;-33.706;151.094;2023-05-14T11:35:21;101017.84;;;16.15;49.12
37291;BME280;23175;-33.706;151.094;2023-05-14T11:37:52;101017.11;;;15.98;49.15
37291;BME280;23175;-33.706;151.094;2023-05-14T11:40:22;101015.82;;;15.58;49.65
37291;BME280;23175;-33.706;151.094;2023-05-14T11:42:53;101015.68;;;15.20;49.44
37291;BME280;23175;-33.706;151.094;2023-05-14T11:45:31;101015.57;;;15.04;50.68
37291;BME280;23175;-33.706;151.094;2023-05-14T11:48:01;101010.47;;;15.65;49.69
37291;BME280;23175;-33.706;151.094;2023-05-14T11:50:34;101011.24;;;15.46;49.77
37291;BME280;23175;-33.706;151.094;2023-05-14T11:53:04;101012.14;;;15.54;49.49
37291;BME280;23175;-33.706;151.094;2023-05-14T11:55:35;101010.39;;;15.66;49.07
37291;BME280;23175;-33.706;151.094;2023-05-14T11:58:05;101009.21;;;15.60;49.05
37291;BME280;23175;-33.706;151.094;2023-05-14T12:00:35;101006.81;;;15.48;49.12
37291;BME280;23175;-33.706;151.094;2023-05-14T12:03:06;101007.79;;;15.47;49.00
37291;BME280;23175;-33.706;151.094;2023-05-14T12:05:39;101005.59;;;15.24;49.46
37291;BME280;23175;-33.706;151.094;2023-05-14T12:08:21;101002.04;;;15.34;48.97
37291;BME280;23175;-33.706;151.094;2023-05-14T12:10:52;100996.68;;;15.42;48.78
37291;BME280;23175;-33.706;151.094;2023-05-14T12:13:25;100992.03;;;16.17;48.54
37291;BME280;23175;-33.706;151.094;2023-05-14T12:15:56;100992.50;;;15.14;48.93
37291;BME280;23175;-33.706;151.094;2023-05-14T12:18:28;100988.43;;;15.32;49.15
37291;BME280;23175;-33.706;151.094;2023-05-14T12:21:04;100983.46;;;15.16;48.80
37291;BME280;23175;-33.706;151.094;2023-05-14T12:23:35;100980.62;;;15.36;48.56
37291;BME280;23175;-33.706;151.094;2023-05-14T12:26:07;100977.26;;;15.54;48.59
37291;BME280;23175;-33.706;151.094;2023-05-14T12:28:39;100975.43;;;15.13;48.74
37291;BME280;23175;-33.706;151.094;2023-05-14T12:31:11;100973.11;;;15.45;48.36
37291;BME280;23175;-33.706;151.094;2023-05-14T12:33:41;100974.79;;;15.18;48.66
37291;BME280;23175;-33.706;151.094;2023-05-14T12:36:11;100975.11;;;15.04;48.24
37291;BME280;23175;-33.706;151.094;2023-05-14T12:38:41;100976.27;;;15.71;48.21